sensor_id;sensor_type;location;lat;lon;timestamp;temperature;humidity
40340;DHT22;26044;50.864;20.658;2022-11-15T00:00:45;5.50;99.90
40340;DHT22;26044;50.864;20.658;2022-11-15T00:03:20;5.50;99.90
40340;DHT22;26044;50.864;20.658;2022-11-15T00:05:48;5.50;99.90
40340;DHT22;26044;50.864;20.658;2022-11-15T00:08:15;5.50;99.90
40340;DHT22;26044;50.864;20.658;2022-11-15T00:10:42;5.40;99.90
40340;DHT22;26044;50.864;20.658;2022-11-15T00:13:11;5.40;99.90
40340;DHT22;26044;50.864;20.658;2022-11-15T00:15:40;5.50;99.90
40340;DHT22;26044;50.864;20.658;2022-11-15T00:18:12;5.50;99.90
40340;DHT22;26044;50.864;20.658;2022-11-15T00:20:40;5.40;99.90
40340;DHT22;26044;50.864;20.658;2022-11-15T00:23:07;5.40;99.90
40340;DHT22;26044;50.864;20.658;2022-11-15T00:25:34;5.40;99.90
40340;DHT22;26044;50.864;20.658;2022-11-15T00:28:01;5.40;99.90
40340;DHT22;26044;50.864;20.658;2022-11-15T00:30:28;5.40;99.90
40340;DHT22;26044;50.864;20.658;2022-11-15T00:32:55;5.40;99.90
40340;DHT22;26044;50.864;20.658;2022-11-15T00:35:27;5.40;99.90
40340;DHT22;26044;50.864;20.658;2022-11-15T00:37:53;5.40;99.90
40340;DHT22;26044;50.864;20.658;2022-11-15T00:40:20;5.40;99.90
40340;DHT22;26044;50.864;20.658;2022-11-15T00:42:47;5.40;99.90
40340;DHT22;26044;50.864;20.658;2022-11-15T00:45:13;5.40;99.90
40340;DHT22;26044;50.864;20.658;2022-11-15T00:47:40;5.30;99.90
40340;DHT22;26044;50.864;20.658;2022-11-15T00:50:10;5.30;99.90
40340;DHT22;26044;50.864;20.658;2022-11-15T00:52:41;5.30;99.90
40340;DHT22;26044;50.864;20.658;2022-11-15T00:55:16;5.40;99.90
40340;DHT22;26044;50.864;20.658;2022-11-15T00:57:43;5.30;99.90
40340;DHT22;26044;50.864;20.658;2022-11-15T01:00:10;5.30;99.90
40340;DHT22;26044;50.864;20.658;2022-11-15T01:02:37;5.30;99.90
40340;DHT22;26044;50.864;20.658;2022-11-15T01:05:04;5.30;99.90
40340;DHT22;26044;50.864;20.658;2022-11-15T01:07:31;5.30;99.90
40340;DHT22;26044;50.864;20.658;2022-11-15T01:09:58;5.30;99.90
40340;DHT22;26044;50.864;20.658;2022-11-15T01:12:25;5.30;99.90
40340;DHT22;26044;50.864;20.658;2022-11-15T01:14:52;5.40;99.90
40340;DHT22;26044;50.864;20.658;2022-11-15T01:17:19;5.30;99.90
40340;DHT22;26044;50.864;20.658;2022-11-15T01:19:47;5.30;99.90
40340;DHT22;26044;50.864;20.658;2022-11-15T01:22:15;5.30;99.90
40340;DHT22;26044;50.864;20.658;2022-11-15T01:24:42;5.40;99.90
40340;DHT22;26044;50.864;20.658;2022-11-15T01:27:09;5.30;99.90
40340;DHT22;26044;50.864;20.658;2022-11-15T01:29:36;5.40;99.90
40340;DHT22;26044;50.864;20.658;2022-11-15T01:32:03;5.30;99.90
40340;DHT22;26044;50.864;20.658;2022-11-15T01:34:30;5.30;99.90
40340;DHT22;26044;50.864;20.658;2022-11-15T01:36:57;5.30;99.90
40340;DHT22;26044;50.864;20.658;2022-11-15T01:39:24;5.30;99.90
40340;DHT22;26044;50.864;20.658;2022-11-15T01:41:51;5.30;99.90
40340;DHT22;26044;50.864;20.658;2022-11-15T01:44:41;5.30;99.90
40340;DHT22;26044;50.864;20.658;2022-11-15T01:47:25;5.30;99.90
40340;DHT22;26044;50.864;20.658;2022-11-15T01:50:10;5.30;99.90
40340;DHT22;26044;50.864;20.658;2022-11-15T01:52:39;5.30;99.90
40340;DHT22;26044;50.864;20.658;2022-11-15T01:55:15;5.20;99.90
40340;DHT22;26044;50.864;20.658;2022-11-15T01:57:44;5.20;99.90
40340;DHT22;26044;50.864;20.658;2022-11-15T02:00:13;5.20;99.90
40340;DHT22;26044;50.864;20.658;2022-11-15T02:02:40;5.10;99.90
40340;DHT22;26044;50.864;20.658;2022-11-15T02:05:07;5.10;99.90
40340;DHT22;26044;50.864;20.658;2022-11-15T02:07:35;5.10;99.90
40340;DHT22;26044;50.864;20.658;2022-11-15T02:10:09;5.10;99.90
40340;DHT22;26044;50.864;20.658;2022-11-15T02:12:36;5.10;99.90
40340;DHT22;26044;50.864;20.658;2022-11-15T02:15:05;5.10;99.90
40340;DHT22;26044;50.864;20.658;2022-11-15T02:18:12;5.10;99.90
40340;DHT22;26044;50.864;20.658;2022-11-15T02:21:22;5.00;99.90
40340;DHT22;26044;50.864;20.658;2022-11-15T02:27:09;5.00;99.90
40340;DHT22;26044;50.864;20.658;2022-11-15T02:30:17;5.00;99.90
40340;DHT22;26044;50.864;20.658;2022-11-15T02:32:58;5.00;99.90
40340;DHT22;26044;50.864;20.658;2022-11-15T02:38:42;5.00;99.90
40340;DHT22;26044;50.864;20.658;2022-11-15T02:41:16;5.00;99.90
40340;DHT22;26044;50.864;20.658;2022-11-15T02:43:48;5.00;99.90
40340;DHT22;26044;50.864;20.658;2022-11-15T02:46:41;5.00;99.90
40340;DHT22;26044;50.864;20.658;2022-11-15T02:49:32;5.10;99.90
40340;DHT22;26044;50.864;20.658;2022-11-15T02:51:59;5.00;99.90
40340;DHT22;26044;50.864;20.658;2022-11-15T02:54:32;5.00;99.90
40340;DHT22;26044;50.864;20.658;2022-11-15T02:57:05;5.00;99.90
40340;DHT22;26044;50.864;20.658;2022-11-15T03:05:41;5.10;99.90
40340;DHT22;26044;50.864;20.658;2022-11-15T03:13:28;5.00;99.90
40340;DHT22;26044;50.864;20.658;2022-11-15T03:18:35;5.00;99.90
40340;DHT22;26044;50.864;20.658;2022-11-15T03:21:06;4.90;99.90
40340;DHT22;26044;50.864;20.658;2022-11-15T03:23:35;4.90;99.90
40340;DHT22;26044;50.864;20.658;2022-11-15T03:26:06;4.80;99.90
40340;DHT22;26044;50.864;20.658;2022-11-15T03:31:11;4.90;99.90
40340;DHT22;26044;50.864;20.658;2022-11-15T03:33:59;4.90;99.90
40340;DHT22;26044;50.864;20.658;2022-11-15T03:36:29;4.90;99.90
40340;DHT22;26044;50.864;20.658;2022-11-15T03:39:00;4.90;99.90
40340;DHT22;26044;50.864;20.658;2022-11-15T03:47:18;4.80;99.90
40340;DHT22;26044;50.864;20.658;2022-11-15T03:49:53;4.80;99.90
40340;DHT22;26044;50.864;20.658;2022-11-15T03:52:22;4.80;99.90
40340;DHT22;26044;50.864;20.658;2022-11-15T03:54:52;4.80;99.90
40340;DHT22;26044;50.864;20.658;2022-11-15T03:57:19;4.70;99.90
40340;DHT22;26044;50.864;20.658;2022-11-15T03:59:46;4.70;99.90
40340;DHT22;26044;50.864;20.658;2022-11-15T04:02:14;4.70;99.90
40340;DHT22;26044;50.864;20.658;2022-11-15T04:04:40;4.70;99.90
40340;DHT22;26044;50.864;20.658;2022-11-15T04:07:07;4.60;99.90
40340;DHT22;26044;50.864;20.658;2022-11-15T04:09:35;4.60;99.90
40340;DHT22;26044;50.864;20.658;2022-11-15T04:12:22;4.70;99.90
40340;DHT22;26044;50.864;20.658;2022-11-15T04:22:58;4.70;99.90
40340;DHT22;26044;50.864;20.658;2022-11-15T04:25:45;4.80;99.90
40340;DHT22;26044;50.864;20.658;2022-11-15T04:28:12;4.80;99.90
40340;DHT22;26044;50.864;20.658;2022-11-15T04:30:39;4.70;99.90
40340;DHT22;26044;50.864;20.658;2022-11-15T04:33:06;4.70;99.90
40340;DHT22;26044;50.864;20.658;2022-11-15T04:35:33;4.70;99.90
40340;DHT22;26044;50.864;20.658;2022-11-15T04:38:04;4.70;99.90
40340;DHT22;26044;50.864;20.658;2022-11-15T04:40:31;4.70;99.90
40340;DHT22;26044;50.864;20.658;2022-11-15T04:42:58;4.60;99.90
40340;DHT22;26044;50.864;20.658;2022-11-15T04:45:30;4.60;99.90
40340;DHT22;26044;50.864;20.658;2022-11-15T04:47:56;4.60;99.90
40340;DHT22;26044;50.864;20.658;2022-11-15T04:50:23;4.60;99.90
40340;DHT22;26044;50.864;20.658;2022-11-15T04:52:52;4.70;99.90
40340;DHT22;26044;50.864;20.658;2022-11-15T04:55:19;4.70;99.90
40340;DHT22;26044;50.864;20.658;2022-11-15T04:57:47;4.70;99.90
40340;DHT22;26044;50.864;20.658;2022-11-15T05:00:15;4.70;99.90
40340;DHT22;26044;50.864;20.658;2022-11-15T05:02:42;4.60;99.90
40340;DHT22;26044;50.864;20.658;2022-11-15T05:05:28;4.60;99.90
40340;DHT22;26044;50.864;20.658;2022-11-15T05:07:54;4.60;99.90
40340;DHT22;26044;50.864;20.658;2022-11-15T05:10:21;4.60;99.90
40340;DHT22;26044;50.864;20.658;2022-11-15T05:12:48;4.60;99.90
40340;DHT22;26044;50.864;20.658;2022-11-15T05:15:15;4.60;99.90
40340;DHT22;26044;50.864;20.658;2022-11-15T05:17:42;4.50;99.90
40340;DHT22;26044;50.864;20.658;2022-11-15T05:20:09;4.60;99.90
40340;DHT22;26044;50.864;20.658;2022-11-15T05:22:36;4.50;99.90
40340;DHT22;26044;50.864;20.658;2022-11-15T05:25:03;4.50;99.90
40340;DHT22;26044;50.864;20.658;2022-11-15T05:27:30;4.50;99.90
40340;DHT22;26044;50.864;20.658;2022-11-15T05:29:57;4.50;99.90
40340;DHT22;26044;50.864;20.658;2022-11-15T05:32:24;4.50;99.90
40340;DHT22;26044;50.864;20.658;2022-11-15T05:34:51;4.50;99.90
40340;DHT22;26044;50.864;20.658;2022-11-15T05:37:18;4.50;99.90
40340;DHT22;26044;50.864;20.658;2022-11-15T05:39:46;4.50;99.90
40340;DHT22;26044;50.864;20.658;2022-11-15T05:42:14;4.40;99.90
40340;DHT22;26044;50.864;20.658;2022-11-15T05:44:46;4.40;99.90
40340;DHT22;26044;50.864;20.658;2022-11-15T05:47:22;4.40;99.90
40340;DHT22;26044;50.864;20.658;2022-11-15T05:49:51;4.40;99.90
40340;DHT22;26044;50.864;20.658;2022-11-15T05:52:23;4.40;99.90
40340;DHT22;26044;50.864;20.658;2022-11-15T05:54:51;4.40;99.90
40340;DHT22;26044;50.864;20.658;2022-11-15T05:57:19;4.50;99.90
40340;DHT22;26044;50.864;20.658;2022-11-15T05:59:45;4.40;99.90
40340;DHT22;26044;50.864;20.658;2022-11-15T06:02:12;4.50;99.90
40340;DHT22;26044;50.864;20.658;2022-11-15T06:04:39;4.50;99.90
40340;DHT22;26044;50.864;20.658;2022-11-15T06:07:06;4.40;99.90
40340;DHT22;26044;50.864;20.658;2022-11-15T06:09:33;4.30;99.90
40340;DHT22;26044;50.864;20.658;2022-11-15T06:12:00;4.30;99.90
40340;DHT22;26044;50.864;20.658;2022-11-15T06:14:27;4.40;99.90
40340;DHT22;26044;50.864;20.658;2022-11-15T06:16:54;4.20;99.90
40340;DHT22;26044;50.864;20.658;2022-11-15T06:19:21;4.20;99.90
40340;DHT22;26044;50.864;20.658;2022-11-15T06:21:47;4.20;99.90
40340;DHT22;26044;50.864;20.658;2022-11-15T06:24:14;4.20;99.90
40340;DHT22;26044;50.864;20.658;2022-11-15T06:26:41;4.20;99.90
40340;DHT22;26044;50.864;20.658;2022-11-15T06:29:08;4.10;99.90
40340;DHT22;26044;50.864;20.658;2022-11-15T06:31:35;4.20;99.90
40340;DHT22;26044;50.864;20.658;2022-11-15T06:34:02;4.20;99.90
40340;DHT22;26044;50.864;20.658;2022-11-15T06:36:29;4.20;99.90
40340;DHT22;26044;50.864;20.658;2022-11-15T06:38:56;4.20;99.90
40340;DHT22;26044;50.864;20.658;2022-11-15T06:41:23;4.20;99.90
40340;DHT22;26044;50.864;20.658;2022-11-15T06:43:50;4.20;99.90
40340;DHT22;26044;50.864;20.658;2022-11-15T06:46:17;4.20;99.90
40340;DHT22;26044;50.864;20.658;2022-11-15T06:48:43;4.30;99.90
40340;DHT22;26044;50.864;20.658;2022-11-15T06:51:10;4.20;99.90
40340;DHT22;26044;50.864;20.658;2022-11-15T06:53:37;4.20;99.90
40340;DHT22;26044;50.864;20.658;2022-11-15T06:56:05;4.20;99.90
40340;DHT22;26044;50.864;20.658;2022-11-15T06:58:33;4.20;99.90
40340;DHT22;26044;50.864;20.658;2022-11-15T07:01:08;4.20;99.90
40340;DHT22;26044;50.864;20.658;2022-11-15T07:03:40;4.20;99.90
40340;DHT22;26044;50.864;20.658;2022-11-15T07:06:08;4.30;99.90
40340;DHT22;26044;50.864;20.658;2022-11-15T07:08:35;4.20;99.90
40340;DHT22;26044;50.864;20.658;2022-11-15T07:11:06;4.20;99.90
40340;DHT22;26044;50.864;20.658;2022-11-15T07:13:33;4.20;99.90
40340;DHT22;26044;50.864;20.658;2022-11-15T07:16:07;4.20;99.90
40340;DHT22;26044;50.864;20.658;2022-11-15T07:18:35;4.20;99.90
40340;DHT22;26044;50.864;20.658;2022-11-15T07:21:04;4.10;99.90
40340;DHT22;26044;50.864;20.658;2022-11-15T07:23:31;4.20;99.90
40340;DHT22;26044;50.864;20.658;2022-11-15T07:25:59;4.20;99.90
40340;DHT22;26044;50.864;20.658;2022-11-15T07:28:27;4.20;99.90
40340;DHT22;26044;50.864;20.658;2022-11-15T07:30:54;4.20;99.90
40340;DHT22;26044;50.864;20.658;2022-11-15T07:33:21;4.30;99.90
40340;DHT22;26044;50.864;20.658;2022-11-15T07:35:48;4.20;99.90
40340;DHT22;26044;50.864;20.658;2022-11-15T07:38:15;4.20;99.90
40340;DHT22;26044;50.864;20.658;2022-11-15T07:40:46;4.30;99.90
40340;DHT22;26044;50.864;20.658;2022-11-15T07:43:13;4.30;99.90
40340;DHT22;26044;50.864;20.658;2022-11-15T07:45:43;4.40;99.90
40340;DHT22;26044;50.864;20.658;2022-11-15T07:48:11;4.40;99.90
40340;DHT22;26044;50.864;20.658;2022-11-15T07:50:40;4.50;99.90
40340;DHT22;26044;50.864;20.658;2022-11-15T07:53:09;4.50;99.90
40340;DHT22;26044;50.864;20.658;2022-11-15T07:55:37;4.40;99.90
40340;DHT22;26044;50.864;20.658;2022-11-15T07:58:08;4.50;99.90
40340;DHT22;26044;50.864;20.658;2022-11-15T08:00:35;4.50;99.90
40340;DHT22;26044;50.864;20.658;2022-11-15T08:03:11;4.50;99.90
40340;DHT22;26044;50.864;20.658;2022-11-15T08:05:39;4.60;99.90
40340;DHT22;26044;50.864;20.658;2022-11-15T08:08:07;4.60;99.90
40340;DHT22;26044;50.864;20.658;2022-11-15T08:10:34;4.70;99.90
40340;DHT22;26044;50.864;20.658;2022-11-15T08:13:10;4.60;99.90
40340;DHT22;26044;50.864;20.658;2022-11-15T08:15:37;4.70;99.90
40340;DHT22;26044;50.864;20.658;2022-11-15T08:18:10;4.70;99.90
40340;DHT22;26044;50.864;20.658;2022-11-15T08:20:38;4.80;99.90
40340;DHT22;26044;50.864;20.658;2022-11-15T08:23:06;4.90;99.90
40340;DHT22;26044;50.864;20.658;2022-11-15T08:25:34;5.00;99.90
40340;DHT22;26044;50.864;20.658;2022-11-15T08:28:04;5.00;99.90
40340;DHT22;26044;50.864;20.658;2022-11-15T08:30:35;5.00;99.90
40340;DHT22;26044;50.864;20.658;2022-11-15T08:33:03;5.00;99.90
40340;DHT22;26044;50.864;20.658;2022-11-15T08:35:30;5.10;99.90
40340;DHT22;26044;50.864;20.658;2022-11-15T08:37:57;5.10;99.90
40340;DHT22;26044;50.864;20.658;2022-11-15T08:40:23;5.10;99.90
40340;DHT22;26044;50.864;20.658;2022-11-15T08:42:50;5.10;99.90
40340;DHT22;26044;50.864;20.658;2022-11-15T08:45:17;5.00;99.90
40340;DHT22;26044;50.864;20.658;2022-11-15T08:47:44;5.00;99.90
40340;DHT22;26044;50.864;20.658;2022-11-15T08:50:19;5.00;99.90
40340;DHT22;26044;50.864;20.658;2022-11-15T08:52:46;5.10;99.90
40340;DHT22;26044;50.864;20.658;2022-11-15T08:55:14;5.10;99.90
40340;DHT22;26044;50.864;20.658;2022-11-15T08:57:43;5.10;99.90
40340;DHT22;26044;50.864;20.658;2022-11-15T09:00:11;5.20;99.90
40340;DHT22;26044;50.864;20.658;2022-11-15T09:02:39;5.10;99.90
40340;DHT22;26044;50.864;20.658;2022-11-15T09:05:07;5.20;99.90
40340;DHT22;26044;50.864;20.658;2022-11-15T09:07:34;5.20;99.90
40340;DHT22;26044;50.864;20.658;2022-11-15T09:10:00;5.30;99.90
40340;DHT22;26044;50.864;20.658;2022-11-15T09:12:28;5.40;99.90
40340;DHT22;26044;50.864;20.658;2022-11-15T09:14:54;5.40;99.90
40340;DHT22;26044;50.864;20.658;2022-11-15T09:17:21;5.40;99.90
40340;DHT22;26044;50.864;20.658;2022-11-15T09:19:50;5.40;99.90
40340;DHT22;26044;50.864;20.658;2022-11-15T09:22:17;5.50;99.90
40340;DHT22;26044;50.864;20.658;2022-11-15T09:24:44;5.50;99.90
40340;DHT22;26044;50.864;20.658;2022-11-15T09:27:11;5.60;99.90
40340;DHT22;26044;50.864;20.658;2022-11-15T09:29:39;5.60;99.90
40340;DHT22;26044;50.864;20.658;2022-11-15T09:32:06;5.60;99.90
40340;DHT22;26044;50.864;20.658;2022-11-15T09:34:33;5.60;99.90
40340;DHT22;26044;50.864;20.658;2022-11-15T09:37:00;5.60;99.90
40340;DHT22;26044;50.864;20.658;2022-11-15T09:39:27;5.50;99.90
40340;DHT22;26044;50.864;20.658;2022-11-15T09:50:17;5.70;99.90
40340;DHT22;26044;50.864;20.658;2022-11-15T09:52:45;5.80;99.90
40340;DHT22;26044;50.864;20.658;2022-11-15T09:55:14;5.80;99.90
40340;DHT22;26044;50.864;20.658;2022-11-15T09:57:50;5.80;99.90
40340;DHT22;26044;50.864;20.658;2022-11-15T10:00:47;5.90;99.90
40340;DHT22;26044;50.864;20.658;2022-11-15T10:03:28;6.00;99.90
40340;DHT22;26044;50.864;20.658;2022-11-15T10:06:02;6.10;99.90
40340;DHT22;26044;50.864;20.658;2022-11-15T10:11:37;6.20;99.90
40340;DHT22;26044;50.864;20.658;2022-11-15T10:14:20;6.20;99.90
40340;DHT22;26044;50.864;20.658;2022-11-15T10:19:38;6.30;99.90
40340;DHT22;26044;50.864;20.658;2022-11-15T10:22:29;6.20;99.90
40340;DHT22;26044;50.864;20.658;2022-11-15T10:25:21;6.20;99.90
40340;DHT22;26044;50.864;20.658;2022-11-15T10:30:47;6.30;99.90
40340;DHT22;26044;50.864;20.658;2022-11-15T10:35:45;6.30;99.90
40340;DHT22;26044;50.864;20.658;2022-11-15T10:38:12;6.40;99.90
40340;DHT22;26044;50.864;20.658;2022-11-15T10:40:41;6.30;99.90
40340;DHT22;26044;50.864;20.658;2022-11-15T10:45:37;6.50;99.90
40340;DHT22;26044;50.864;20.658;2022-11-15T10:50:41;7.30;99.90
40340;DHT22;26044;50.864;20.658;2022-11-15T10:55:51;7.60;99.90
40340;DHT22;26044;50.864;20.658;2022-11-15T10:58:31;7.90;99.90
40340;DHT22;26044;50.864;20.658;2022-11-15T11:03:38;7.80;99.90
40340;DHT22;26044;50.864;20.658;2022-11-15T11:06:17;7.70;99.90
40340;DHT22;26044;50.864;20.658;2022-11-15T11:11:21;7.70;99.90
40340;DHT22;26044;50.864;20.658;2022-11-15T11:13:48;7.70;99.90
40340;DHT22;26044;50.864;20.658;2022-11-15T11:16:34;7.80;99.90
40340;DHT22;26044;50.864;20.658;2022-11-15T11:19:17;8.00;99.90
40340;DHT22;26044;50.864;20.658;2022-11-15T11:35:14;8.10;99.90
40340;DHT22;26044;50.864;20.658;2022-11-15T11:48:42;8.30;99.90
40340;DHT22;26044;50.864;20.658;2022-11-15T11:54:11;8.40;99.90
40340;DHT22;26044;50.864;20.658;2022-11-15T11:56:41;8.50;99.90
40340;DHT22;26044;50.864;20.658;2022-11-15T11:59:33;8.50;99.90
40340;DHT22;26044;50.864;20.658;2022-11-15T12:02:11;8.60;99.90
40340;DHT22;26044;50.864;20.658;2022-11-15T12:04:44;8.60;99.90
40340;DHT22;26044;50.864;20.658;2022-11-15T12:07:20;8.60;99.90
40340;DHT22;26044;50.864;20.658;2022-11-15T12:13:04;8.70;99.90
40340;DHT22;26044;50.864;20.658;2022-11-15T12:15:36;8.80;99.90
40340;DHT22;26044;50.864;20.658;2022-11-15T12:18:03;8.80;99.90
40340;DHT22;26044;50.864;20.658;2022-11-15T12:20:34;8.90;99.90
40340;DHT22;26044;50.864;20.658;2022-11-15T12:23:32;9.00;99.90
40340;DHT22;26044;50.864;20.658;2022-11-15T12:26:10;9.10;99.90
40340;DHT22;26044;50.864;20.658;2022-11-15T12:28:47;9.20;99.90
40340;DHT22;26044;50.864;20.658;2022-11-15T12:31:41;9.20;99.90
40340;DHT22;26044;50.864;20.658;2022-11-15T12:34:38;9.30;99.90
40340;DHT22;26044;50.864;20.658;2022-11-15T12:40:24;9.50;99.90
40340;DHT22;26044;50.864;20.658;2022-11-15T12:45:37;9.60;99.90
40340;DHT22;26044;50.864;20.658;2022-11-15T12:50:56;9.70;99.90
40340;DHT22;26044;50.864;20.658;2022-11-15T13:14:57;9.70;99.90
40340;DHT22;26044;50.864;20.658;2022-11-15T13:17:36;9.60;99.90
40340;DHT22;26044;50.864;20.658;2022-11-15T13:23:09;9.60;99.90
40340;DHT22;26044;50.864;20.658;2022-11-15T13:28:11;9.60;99.90
40340;DHT22;26044;50.864;20.658;2022-11-15T13:33:20;9.60;99.90
40340;DHT22;26044;50.864;20.658;2022-11-15T13:35:54;9.50;99.90
40340;DHT22;26044;50.864;20.658;2022-11-15T13:40:51;9.50;99.90
40340;DHT22;26044;50.864;20.658;2022-11-15T13:46:09;9.40;99.90
40340;DHT22;26044;50.864;20.658;2022-11-15T13:48:37;9.40;99.90
40340;DHT22;26044;50.864;20.658;2022-11-15T13:51:08;9.30;99.90
40340;DHT22;26044;50.864;20.658;2022-11-15T13:53:38;9.20;99.90
40340;DHT22;26044;50.864;20.658;2022-11-15T13:56:07;9.10;99.90
40340;DHT22;26044;50.864;20.658;2022-11-15T13:58:38;9.10;99.90
40340;DHT22;26044;50.864;20.658;2022-11-15T14:01:06;8.90;99.90
40340;DHT22;26044;50.864;20.658;2022-11-15T14:03:37;8.90;99.90
40340;DHT22;26044;50.864;20.658;2022-11-15T14:08:37;8.70;99.90
40340;DHT22;26044;50.864;20.658;2022-11-15T14:13:41;8.50;99.90
40340;DHT22;26044;50.864;20.658;2022-11-15T14:19:05;8.30;99.90
40340;DHT22;26044;50.864;20.658;2022-11-15T14:21:33;8.30;99.90
40340;DHT22;26044;50.864;20.658;2022-11-15T14:24:17;8.20;99.90
40340;DHT22;26044;50.864;20.658;2022-11-15T14:26:45;8.10;99.90
40340;DHT22;26044;50.864;20.658;2022-11-15T14:29:28;8.10;99.90
40340;DHT22;26044;50.864;20.658;2022-11-15T14:32:13;8.00;99.90
40340;DHT22;26044;50.864;20.658;2022-11-15T14:34:40;7.90;99.90
40340;DHT22;26044;50.864;20.658;2022-11-15T14:37:22;7.80;99.90
40340;DHT22;26044;50.864;20.658;2022-11-15T14:39:50;7.80;99.90
40340;DHT22;26044;50.864;20.658;2022-11-15T14:42:19;7.70;99.90
40340;DHT22;26044;50.864;20.658;2022-11-15T14:44:46;7.60;99.90
40340;DHT22;26044;50.864;20.658;2022-11-15T14:47:13;7.50;99.90
40340;DHT22;26044;50.864;20.658;2022-11-15T14:49:41;7.50;99.90
40340;DHT22;26044;50.864;20.658;2022-11-15T14:54:46;7.50;99.90
40340;DHT22;26044;50.864;20.658;2022-11-15T14:57:12;7.40;99.90
40340;DHT22;26044;50.864;20.658;2022-11-15T14:59:39;7.30;99.90
40340;DHT22;26044;50.864;20.658;2022-11-15T15:02:19;7.30;99.90
40340;DHT22;26044;50.864;20.658;2022-11-15T15:04:46;7.30;99.90
40340;DHT22;26044;50.864;20.658;2022-11-15T15:07:13;7.30;99.90
40340;DHT22;26044;50.864;20.658;2022-11-15T15:09:40;7.20;99.90
40340;DHT22;26044;50.864;20.658;2022-11-15T15:12:19;7.20;99.90
40340;DHT22;26044;50.864;20.658;2022-11-15T15:14:47;7.20;99.90
40340;DHT22;26044;50.864;20.658;2022-11-15T15:17:15;7.20;99.90
40340;DHT22;26044;50.864;20.658;2022-11-15T15:19:42;7.20;99.90
40340;DHT22;26044;50.864;20.658;2022-11-15T15:22:14;7.20;99.90
40340;DHT22;26044;50.864;20.658;2022-11-15T15:24:43;7.20;99.90
40340;DHT22;26044;50.864;20.658;2022-11-15T15:27:10;7.20;99.90
40340;DHT22;26044;50.864;20.658;2022-11-15T15:29:37;7.20;99.90
40340;DHT22;26044;50.864;20.658;2022-11-15T15:32:04;7.10;99.90
40340;DHT22;26044;50.864;20.658;2022-11-15T15:34:32;7.10;99.90
40340;DHT22;26044;50.864;20.658;2022-11-15T15:39:54;7.00;99.90
40340;DHT22;26044;50.864;20.658;2022-11-15T15:42:22;7.00;99.90
40340;DHT22;26044;50.864;20.658;2022-11-15T15:44:51;7.00;99.90
40340;DHT22;26044;50.864;20.658;2022-11-15T15:47:22;6.90;99.90
40340;DHT22;26044;50.864;20.658;2022-11-15T15:49:50;6.90;99.90
40340;DHT22;26044;50.864;20.658;2022-11-15T15:52:17;6.80;99.90
40340;DHT22;26044;50.864;20.658;2022-11-15T15:54:44;6.70;99.90
40340;DHT22;26044;50.864;20.658;2022-11-15T15:57:12;6.70;99.90
40340;DHT22;26044;50.864;20.658;2022-11-15T15:59:40;6.80;99.90
40340;DHT22;26044;50.864;20.658;2022-11-15T16:02:11;6.70;99.90
40340;DHT22;26044;50.864;20.658;2022-11-15T16:04:38;6.70;99.90
40340;DHT22;26044;50.864;20.658;2022-11-15T16:07:05;6.60;99.90
40340;DHT22;26044;50.864;20.658;2022-11-15T16:09:34;6.60;99.90
40340;DHT22;26044;50.864;20.658;2022-11-15T16:12:20;6.60;99.90
40340;DHT22;26044;50.864;20.658;2022-11-15T16:14:46;6.60;99.90
40340;DHT22;26044;50.864;20.658;2022-11-15T16:17:22;6.60;99.90
40340;DHT22;26044;50.864;20.658;2022-11-15T16:19:49;6.70;99.90
40340;DHT22;26044;50.864;20.658;2022-11-15T16:22:16;6.70;99.90
40340;DHT22;26044;50.864;20.658;2022-11-15T16:24:45;6.80;99.90
40340;DHT22;26044;50.864;20.658;2022-11-15T16:27:16;6.70;99.90
40340;DHT22;26044;50.864;20.658;2022-11-15T16:29:44;6.60;99.90
40340;DHT22;26044;50.864;20.658;2022-11-15T16:32:12;6.70;99.90
40340;DHT22;26044;50.864;20.658;2022-11-15T16:34:40;6.60;99.90
40340;DHT22;26044;50.864;20.658;2022-11-15T16:37:23;6.60;99.90
40340;DHT22;26044;50.864;20.658;2022-11-15T16:39:50;6.60;99.90
40340;DHT22;26044;50.864;20.658;2022-11-15T16:42:19;6.50;99.90
40340;DHT22;26044;50.864;20.658;2022-11-15T16:44:46;6.50;99.90
40340;DHT22;26044;50.864;20.658;2022-11-15T16:47:19;6.60;99.90
40340;DHT22;26044;50.864;20.658;2022-11-15T16:49:46;6.60;99.90
40340;DHT22;26044;50.864;20.658;2022-11-15T16:52:13;6.60;99.90
40340;DHT22;26044;50.864;20.658;2022-11-15T16:54:46;6.60;99.90
40340;DHT22;26044;50.864;20.658;2022-11-15T16:57:13;6.60;99.90
40340;DHT22;26044;50.864;20.658;2022-11-15T16:59:40;6.60;99.90
40340;DHT22;26044;50.864;20.658;2022-11-15T17:02:13;6.60;99.90
40340;DHT22;26044;50.864;20.658;2022-11-15T17:04:40;6.60;99.90
40340;DHT22;26044;50.864;20.658;2022-11-15T17:07:07;6.60;99.90
40340;DHT22;26044;50.864;20.658;2022-11-15T17:09:34;6.60;99.90
40340;DHT22;26044;50.864;20.658;2022-11-15T17:12:01;6.70;99.90
40340;DHT22;26044;50.864;20.658;2022-11-15T17:14:28;6.70;99.90
40340;DHT22;26044;50.864;20.658;2022-11-15T17:16:54;6.70;99.90
40340;DHT22;26044;50.864;20.658;2022-11-15T17:19:21;6.70;99.90
40340;DHT22;26044;50.864;20.658;2022-11-15T17:21:48;6.70;99.90
40340;DHT22;26044;50.864;20.658;2022-11-15T17:24:15;6.80;99.90
40340;DHT22;26044;50.864;20.658;2022-11-15T17:26:42;6.90;99.90
40340;DHT22;26044;50.864;20.658;2022-11-15T17:29:09;6.90;99.90
40340;DHT22;26044;50.864;20.658;2022-11-15T17:31:37;6.90;99.90
40340;DHT22;26044;50.864;20.658;2022-11-15T17:34:05;7.00;99.90
40340;DHT22;26044;50.864;20.658;2022-11-15T17:36:33;7.00;99.90
40340;DHT22;26044;50.864;20.658;2022-11-15T17:39:00;7.10;99.90
40340;DHT22;26044;50.864;20.658;2022-11-15T17:41:28;7.00;99.90
40340;DHT22;26044;50.864;20.658;2022-11-15T17:43:56;7.10;99.90
40340;DHT22;26044;50.864;20.658;2022-11-15T17:46:24;7.10;99.90
40340;DHT22;26044;50.864;20.658;2022-11-15T17:48:51;7.10;99.90
40340;DHT22;26044;50.864;20.658;2022-11-15T17:51:18;7.20;99.90
40340;DHT22;26044;50.864;20.658;2022-11-15T17:53:46;7.20;99.90
40340;DHT22;26044;50.864;20.658;2022-11-15T17:56:16;7.20;99.90
40340;DHT22;26044;50.864;20.658;2022-11-15T17:58:48;7.20;99.90
40340;DHT22;26044;50.864;20.658;2022-11-15T18:03:50;7.20;99.90
40340;DHT22;26044;50.864;20.658;2022-11-15T18:06:18;7.20;99.90
40340;DHT22;26044;50.864;20.658;2022-11-15T18:08:47;7.20;99.90
40340;DHT22;26044;50.864;20.658;2022-11-15T18:11:20;7.10;99.90
40340;DHT22;26044;50.864;20.658;2022-11-15T18:13:50;7.10;99.90
40340;DHT22;26044;50.864;20.658;2022-11-15T18:16:20;7.10;99.90
40340;DHT22;26044;50.864;20.658;2022-11-15T18:18:47;7.20;99.90
40340;DHT22;26044;50.864;20.658;2022-11-15T18:21:18;7.20;99.90
40340;DHT22;26044;50.864;20.658;2022-11-15T18:23:46;7.20;99.90
40340;DHT22;26044;50.864;20.658;2022-11-15T18:26:15;7.10;99.90
40340;DHT22;26044;50.864;20.658;2022-11-15T18:28:44;7.10;99.90